Time;durP1;ratioP1;P1;durP2;ratioP2;P2;SDS_P1;SDS_P2;PMS_P1;PMS_P2;Temp;Humidity;BMP_temperature;BMP_pressure;BME280_temperature;BME280_humidity;BME280_pressure;Samples;Min_cycle;Max_cycle;Signal;HPM_P1;HPM_P2
2022/03/20 00:02:21;;;;;;;;;2.25;2.25;;;;;;;;5065636;28;45599;-64
2022/03/20 00:04:46;;;;;;;;;6.25;3.75;;;;;;;;5051006;28;45450;-64
2022/03/20 00:07:12;;;;;;;;;4.50;4.50;;;;;;;;5048402;28;46106;-64
2022/03/20 00:09:40;;;;;;;;;2.25;1.00;;;;;;;;5070084;28;45486;-65
2022/03/20 00:12:06;;;;;;;;;4.50;3.00;;;;;;;;5049672;28;47579;-64
2022/03/20 00:14:31;;;;;;;;;4.00;4.00;;;;;;;;5050980;28;46200;-64
2022/03/20 00:16:56;;;;;;;;;4.25;4.25;;;;;;;;5050349;28;45334;-64
2022/03/20 00:19:21;;;;;;;;;3.00;2.25;;;;;;;;5066707;28;45361;-64
2022/03/20 00:21:47;;;;;;;;;6.50;3.25;;;;;;;;5072014;28;46352;-64
2022/03/20 00:24:12;;;;;;;;;3.50;3.50;;;;;;;;5049686;28;45416;-64
2022/03/20 00:26:39;;;;;;;;;2.25;2.25;;;;;;;;5047401;28;45633;-64
2022/03/20 00:29:05;;;;;;;;;4.75;3.00;;;;;;;;5050786;28;45397;-64
2022/03/20 00:31:32;;;;;;;;;2.00;1.00;;;;;;;;5048784;28;47000;-64
2022/03/20 00:33:57;;;;;;;;;4.50;3.25;;;;;;;;5069715;27;45651;-65
2022/03/20 00:36:22;;;;;;;;;4.50;4.50;;;;;;;;5053824;28;45552;-64
2022/03/20 00:38:48;;;;;;;;;3.50;3.50;;;;;;;;5049615;28;45540;-64
2022/03/20 00:41:13;;;;;;;;;3.50;3.50;;;;;;;;5049789;28;47564;-64
2022/03/20 00:43:38;;;;;;;;;2.75;2.75;;;;;;;;5050025;28;45657;-64
2022/03/20 00:46:04;;;;;;;;;3.75;2.00;;;;;;;;5069567;28;45354;-64
2022/03/20 00:48:29;;;;;;;;;5.75;3.50;;;;;;;;5072849;28;45451;-64
2022/03/20 00:50:54;;;;;;;;;5.00;3.50;;;;;;;;5049533;28;47652;-64
2022/03/20 00:53:19;;;;;;;;;4.25;4.25;;;;;;;;5067706;28;45475;-64
2022/03/20 00:55:45;;;;;;;;;2.00;2.00;;;;;;;;5067940;28;45486;-64
2022/03/20 00:58:11;;;;;;;;;1.50;1.50;;;;;;;;5051111;28;45483;-64
2022/03/20 01:00:37;;;;;;;;;2.50;2.50;;;;;;;;5060401;28;47660;-65
2022/03/20 01:03:02;;;;;;;;;2.00;2.00;;;;;;;;5052216;28;45520;-64
2022/03/20 01:05:27;;;;;;;;;3.00;3.00;;;;;;;;5060054;28;45907;-65
2022/03/20 01:07:53;;;;;;;;;3.00;2.00;;;;;;;;5055102;28;45436;-64
2022/03/20 01:10:18;;;;;;;;;2.25;2.25;;;;;;;;5052065;28;47602;-64
2022/03/20 01:12:43;;;;;;;;;2.00;1.75;;;;;;;;5055623;28;45626;-65
2022/03/20 01:15:10;;;;;;;;;3.00;2.00;;;;;;;;5058714;28;45656;-64
2022/03/20 01:17:36;;;;;;;;;2.25;2.25;;;;;;;;5054217;28;45525;-64
2022/03/20 01:20:02;;;;;;;;;3.00;2.25;;;;;;;;5039973;28;46651;-64
2022/03/20 01:22:27;;;;;;;;;2.00;2.00;;;;;;;;5050971;28;45821;-63
2022/03/20 01:24:53;;;;;;;;;3.25;2.00;;;;;;;;5054587;28;45334;-63
2022/03/20 01:27:18;;;;;;;;;4.75;3.00;;;;;;;;5052316;28;45662;-63
2022/03/20 01:29:44;;;;;;;;;2.75;2.75;;;;;;;;5054636;28;46089;-64
2022/03/20 01:32:10;;;;;;;;;2.00;2.00;;;;;;;;5048991;28;46217;-64
2022/03/20 01:34:36;;;;;;;;;4.50;2.50;;;;;;;;5049685;28;45381;-64
2022/03/20 01:37:02;;;;;;;;;4.25;2.00;;;;;;;;5053513;28;45516;-63
2022/03/20 01:39:27;;;;;;;;;3.00;2.00;;;;;;;;5053749;28;47453;-64
2022/03/20 01:41:52;;;;;;;;;2.00;2.00;;;;;;;;5048818;28;46002;-64
2022/03/20 01:44:17;;;;;;;;;2.00;2.00;;;;;;;;5049189;28;45695;-64
2022/03/20 01:46:43;;;;;;;;;3.00;2.25;;;;;;;;5049083;28;45604;-64
2022/03/20 01:49:08;;;;;;;;;4.00;2.00;;;;;;;;5054758;28;45547;-64
2022/03/20 01:54:17;;;;;;;;;3.00;3.00;;;;;;;;5055795;28;45345;-64
2022/03/20 01:56:45;;;;;;;;;1.50;1.50;;;;;;;;5048675;28;45540;-64
2022/03/20 01:59:10;;;;;;;;;4.00;2.00;;;;;;;;5048594;28;48807;-64
2022/03/20 02:01:36;;;;;;;;;2.00;2.00;;;;;;;;5048830;28;45688;-64
2022/03/20 02:04:01;;;;;;;;;2.00;2.00;;;;;;;;5053338;28;45263;-63
2022/03/20 02:06:26;;;;;;;;;3.00;3.00;;;;;;;;5059909;28;45502;-64
2022/03/20 02:08:53;;;;;;;;;1.75;1.75;;;;;;;;5056966;28;48183;-63
2022/03/20 02:11:20;;;;;;;;;3.50;2.25;;;;;;;;5041555;28;45543;-63
2022/03/20 02:13:45;;;;;;;;;2.25;2.25;;;;;;;;5048722;28;45555;-64
2022/03/20 02:16:11;;;;;;;;;2.00;2.00;;;;;;;;5051515;28;45545;-63
2022/03/20 02:18:36;;;;;;;;;5.00;2.00;;;;;;;;5056190;28;45880;-64
2022/03/20 02:21:02;;;;;;;;;4.50;3.00;;;;;;;;5053955;28;45522;-63
2022/03/20 02:23:27;;;;;;;;;3.50;2.25;;;;;;;;5054313;28;45481;-63
2022/03/20 02:25:53;;;;;;;;;2.00;2.00;;;;;;;;5048285;28;45670;-63
2022/03/20 02:28:18;;;;;;;;;3.00;3.00;;;;;;;;5050529;28;47857;-63
2022/03/20 02:30:45;;;;;;;;;2.00;2.00;;;;;;;;5055821;28;45431;-63
2022/03/20 02:33:10;;;;;;;;;3.25;2.75;;;;;;;;5056586;28;45423;-63
2022/03/20 02:35:35;;;;;;;;;2.75;2.75;;;;;;;;5043243;28;45479;-64
2022/03/20 02:38:01;;;;;;;;;2.25;2.25;;;;;;;;5048133;28;47914;-63
2022/03/20 02:40:26;;;;;;;;;2.00;2.00;;;;;;;;5050006;28;45480;-63
2022/03/20 02:42:54;;;;;;;;;4.75;4.75;;;;;;;;5055005;28;45321;-62
2022/03/20 02:45:23;;;;;;;;;2.00;2.00;;;;;;;;5055281;28;45461;-64
2022/03/20 02:47:49;;;;;;;;;2.00;2.00;;;;;;;;5047700;28;47998;-64
2022/03/20 02:50:16;;;;;;;;;2.00;2.00;;;;;;;;5048026;28;45365;-63
2022/03/20 02:52:42;;;;;;;;;2.00;2.00;;;;;;;;5052366;28;45618;-64
2022/03/20 02:55:08;;;;;;;;;2.00;2.00;;;;;;;;5053698;28;45524;-64
2022/03/20 02:57:34;;;;;;;;;3.00;3.00;;;;;;;;5055418;28;45384;-64
2022/03/20 03:00:04;;;;;;;;;4.75;2.00;;;;;;;;5047923;28;45846;-64
2022/03/20 03:02:33;;;;;;;;;3.00;3.00;;;;;;;;5047582;28;45456;-62
2022/03/20 03:04:59;;;;;;;;;2.75;2.75;;;;;;;;5053410;28;45495;-63
2022/03/20 03:07:31;;;;;;;;;2.25;2.25;;;;;;;;5049281;28;47640;-62
2022/03/20 03:12:41;;;;;;;;;3.75;3.75;;;;;;;;5055530;28;45316;-64
2022/03/20 03:15:21;;;;;;;;;4.00;3.25;;;;;;;;5047598;28;45388;-64
2022/03/20 03:17:47;;;;;;;;;2.50;2.50;;;;;;;;5047461;28;49011;-64
2022/03/20 03:20:13;;;;;;;;;4.00;4.00;;;;;;;;5053045;28;45450;-63
2022/03/20 03:22:38;;;;;;;;;3.00;3.00;;;;;;;;5052656;28;45330;-63
2022/03/20 03:25:04;;;;;;;;;2.75;2.25;;;;;;;;5051942;28;45513;-64
2022/03/20 03:27:30;;;;;;;;;1.25;1.25;;;;;;;;5052481;28;48900;-64
2022/03/20 03:29:55;;;;;;;;;4.25;4.00;;;;;;;;5047178;28;46181;-63
2022/03/20 03:32:20;;;;;;;;;3.75;3.75;;;;;;;;5047338;28;45342;-63
2022/03/20 03:37:30;;;;;;;;;4.00;4.00;;;;;;;;5041576;28;45698;-64
2022/03/20 03:39:55;;;;;;;;;5.25;5.25;;;;;;;;5053994;28;46544;-62
2022/03/20 03:42:21;;;;;;;;;1.00;1.00;;;;;;;;5057727;28;45344;-62
2022/03/20 03:44:49;;;;;;;;;6.00;2.00;;;;;;;;5047446;28;47801;-63
2022/03/20 03:47:14;;;;;;;;;7.25;4.00;;;;;;;;5068518;28;45468;-63
2022/03/20 03:49:40;;;;;;;;;4.25;4.25;;;;;;;;5042141;28;45703;-63
2022/03/20 03:52:05;;;;;;;;;3.50;3.50;;;;;;;;5050224;28;45889;-62
2022/03/20 03:54:31;;;;;;;;;4.00;4.00;;;;;;;;5053753;28;45493;-63
2022/03/20 03:56:57;;;;;;;;;4.00;4.00;;;;;;;;5047990;28;48571;-64
2022/03/20 03:59:22;;;;;;;;;4.00;2.75;;;;;;;;5065340;28;45531;-63
2022/03/20 04:01:47;;;;;;;;;5.00;3.00;;;;;;;;5050279;28;45524;-62
2022/03/20 04:04:14;;;;;;;;;3.75;3.75;;;;;;;;5050861;28;45441;-63
2022/03/20 04:06:39;;;;;;;;;4.00;4.00;;;;;;;;5057366;28;47632;-64
2022/03/20 04:09:04;;;;;;;;;4.00;4.00;;;;;;;;5049326;28;45744;-65
2022/03/20 04:11:29;;;;;;;;;4.00;4.00;;;;;;;;5050377;28;45521;-63
2022/03/20 04:13:56;;;;;;;;;4.25;3.25;;;;;;;;5050246;28;45447;-64
2022/03/20 04:16:21;;;;;;;;;3.00;3.00;;;;;;;;5050200;28;47817;-63
2022/03/20 04:18:46;;;;;;;;;5.25;5.25;;;;;;;;5073667;28;45374;-63
2022/03/20 04:21:12;;;;;;;;;9.00;4.00;;;;;;;;5056260;28;45411;-63
2022/03/20 04:23:46;;;;;;;;;4.50;4.50;;;;;;;;5045352;28;45747;-63
2022/03/20 04:26:13;;;;;;;;;6.00;6.00;;;;;;;;5049839;28;47785;-63
2022/03/20 04:28:38;;;;;;;;;8.00;6.00;;;;;;;;5050232;28;46112;-64
2022/03/20 04:31:03;;;;;;;;;8.00;7.00;;;;;;;;5051627;28;45672;-63
2022/03/20 04:33:31;;;;;;;;;7.50;5.75;;;;;;;;5056216;28;45438;-63
2022/03/20 04:35:56;;;;;;;;;5.50;4.00;;;;;;;;5053306;28;47869;-63
2022/03/20 04:38:21;;;;;;;;;7.00;7.00;;;;;;;;5053257;28;45783;-63
2022/03/20 04:40:48;;;;;;;;;4.50;4.50;;;;;;;;5053496;28;45442;-64
2022/03/20 04:43:13;;;;;;;;;3.00;3.00;;;;;;;;5054001;28;45587;-63
2022/03/20 04:45:38;;;;;;;;;6.75;6.75;;;;;;;;5077648;28;46302;-62
2022/03/20 04:58:59;;;;;;;;;6.50;6.00;;;;;;;;5071100;28;45432;-64
2022/03/20 05:01:25;;;;;;;;;5.00;5.00;;;;;;;;5053326;28;45415;-64
2022/03/20 05:03:50;;;;;;;;;9.00;8.00;;;;;;;;5076259;28;45571;-64
2022/03/20 05:06:15;;;;;;;;;7.25;7.25;;;;;;;;5073014;28;46036;-63
2022/03/20 05:08:41;;;;;;;;;7.00;7.00;;;;;;;;5053087;28;45393;-63
2022/03/20 05:13:50;;;;;;;;;7.00;6.75;;;;;;;;5071285;28;45420;-63
2022/03/20 05:16:15;;;;;;;;;7.25;7.25;;;;;;;;5070820;28;46179;-63
2022/03/20 05:18:40;;;;;;;;;8.00;7.00;;;;;;;;5059266;28;45539;-64
2022/03/20 05:21:06;;;;;;;;;9.75;5.25;;;;;;;;5052780;28;45388;-63
2022/03/20 05:23:32;;;;;;;;;6.00;6.00;;;;;;;;5052999;28;45480;-63
2022/03/20 05:25:57;;;;;;;;;7.00;5.25;;;;;;;;5052715;28;48504;-62
2022/03/20 05:28:22;;;;;;;;;3.00;3.00;;;;;;;;5053067;28;46408;-63
2022/03/20 05:30:47;;;;;;;;;7.00;7.00;;;;;;;;5076166;28;45701;-63
2022/03/20 05:33:14;;;;;;;;;14.00;8.50;;;;;;;;5049574;28;45415;-63
2022/03/20 05:35:39;;;;;;;;;7.00;6.75;;;;;;;;5051827;28;46372;-64
2022/03/20 05:38:06;;;;;;;;;7.50;7.50;;;;;;;;5051340;28;45597;-63
2022/03/20 05:40:31;;;;;;;;;6.75;6.75;;;;;;;;5068684;27;45465;-63
2022/03/20 05:42:57;;;;;;;;;11.50;8.00;;;;;;;;5054331;28;45458;-63
2022/03/20 05:45:22;;;;;;;;;6.75;6.75;;;;;;;;5072567;28;46018;-63
2022/03/20 05:47:48;;;;;;;;;6.75;6.25;;;;;;;;5051311;28;46066;-63
2022/03/20 05:50:16;;;;;;;;;5.25;4.00;;;;;;;;5051508;28;45535;-63
2022/03/20 05:52:41;;;;;;;;;7.50;7.50;;;;;;;;5069682;27;45467;-63
2022/03/20 05:55:07;;;;;;;;;7.50;7.50;;;;;;;;5070352;28;45523;-64
2022/03/20 06:00:25;;;;;;;;;6.75;6.25;;;;;;;;5071520;28;45623;-63
2022/03/20 06:02:50;;;;;;;;;11.00;6.75;;;;;;;;5051022;28;45378;-63
2022/03/20 06:05:16;;;;;;;;;10.00;7.75;;;;;;;;5041217;28;47319;-62
2022/03/20 06:07:52;;;;;;;;;9.75;7.75;;;;;;;;5059265;28;45478;-62
2022/03/20 06:10:17;;;;;;;;;10.25;6.25;;;;;;;;5051830;27;45329;-63
2022/03/20 06:12:43;;;;;;;;;8.00;7.00;;;;;;;;5056645;28;45619;-63
2022/03/20 06:15:09;;;;;;;;;7.00;6.50;;;;;;;;5069980;28;45772;-63
2022/03/20 06:17:38;;;;;;;;;9.00;7.75;;;;;;;;5051656;28;46277;-63
2022/03/20 06:20:05;;;;;;;;;8.00;6.75;;;;;;;;5052850;28;45594;-63
2022/03/20 06:22:30;;;;;;;;;8.50;8.00;;;;;;;;5050395;28;45494;-63
2022/03/20 06:24:55;;;;;;;;;7.50;5.25;;;;;;;;5053841;28;48570;-63
2022/03/20 06:27:21;;;;;;;;;6.00;6.00;;;;;;;;5054146;28;45961;-64
2022/03/20 06:29:46;;;;;;;;;9.25;8.00;;;;;;;;5039060;28;46000;-62
2022/03/20 06:32:11;;;;;;;;;8.50;7.75;;;;;;;;5055129;28;45574;-63
2022/03/20 06:34:37;;;;;;;;;6.00;6.00;;;;;;;;5048113;28;47964;-63
2022/03/20 06:37:02;;;;;;;;;7.25;7.25;;;;;;;;5007804;28;1315567;-61
2022/03/20 06:39:28;;;;;;;;;11.00;9.75;;;;;;;;5074384;28;45566;-62
2022/03/20 06:41:53;;;;;;;;;8.00;8.00;;;;;;;;5049549;28;45527;-62
2022/03/20 06:44:18;;;;;;;;;6.25;6.25;;;;;;;;5048881;28;47430;-62
2022/03/20 06:46:44;;;;;;;;;8.75;7.25;;;;;;;;5047786;28;45482;-64
2022/03/20 06:49:10;;;;;;;;;8.00;6.75;;;;;;;;5053550;28;45459;-64
2022/03/20 06:51:36;;;;;;;;;9.50;8.00;;;;;;;;5064531;28;45710;-64
2022/03/20 06:54:01;;;;;;;;;10.00;10.00;;;;;;;;5052124;28;47509;-64
2022/03/20 06:56:28;;;;;;;;;11.25;9.25;;;;;;;;5069811;27;45388;-64
2022/03/20 06:58:54;;;;;;;;;10.50;9.00;;;;;;;;5050668;28;45588;-64
2022/03/20 07:01:19;;;;;;;;;9.00;9.00;;;;;;;;5050401;28;48089;-64
2022/03/20 07:03:44;;;;;;;;;14.75;10.75;;;;;;;;5054861;28;48454;-64
2022/03/20 07:06:09;;;;;;;;;15.25;13.00;;;;;;;;5049610;28;45687;-64
2022/03/20 07:08:34;;;;;;;;;12.25;12.25;;;;;;;;5070680;28;45491;-64
2022/03/20 07:11:00;;;;;;;;;10.25;10.25;;;;;;;;5051712;28;45638;-64
2022/03/20 07:16:14;;;;;;;;;15.75;13.25;;;;;;;;5046479;28;45385;-64
2022/03/20 07:18:39;;;;;;;;;13.25;11.50;;;;;;;;5035015;28;45923;-64
2022/03/20 07:21:05;;;;;;;;;18.00;12.50;;;;;;;;5050820;28;45382;-64
2022/03/20 07:23:30;;;;;;;;;19.00;14.75;;;;;;;;5048918;28;48602;-64
2022/03/20 07:31:23;;;;;;;;;13.25;10.00;;;;;;;;5053815;28;45441;-63
2022/03/20 07:33:49;;;;;;;;;14.25;14.25;;;;;;;;5039959;28;47683;-63
2022/03/20 07:36:15;;;;;;;;;14.25;13.50;;;;;;;;5032370;28;46207;-64
2022/03/20 07:38:40;;;;;;;;;11.00;10.75;;;;;;;;5057304;28;45340;-63
2022/03/20 07:41:05;;;;;;;;;20.50;15.50;;;;;;;;5039987;28;45770;-63
2022/03/20 07:43:30;;;;;;;;;13.50;11.75;;;;;;;;5039986;28;48637;-63
2022/03/20 07:45:56;;;;;;;;;14.75;14.00;;;;;;;;5035304;28;45398;-63
2022/03/20 07:48:23;;;;;;;;;14.50;14.50;;;;;;;;5066972;28;45541;-64
2022/03/20 07:50:50;;;;;;;;;15.75;14.75;;;;;;;;5050107;28;45907;-64
2022/03/20 07:53:16;;;;;;;;;18.00;16.25;;;;;;;;5051023;28;47650;-64
2022/03/20 07:55:42;;;;;;;;;19.00;16.75;;;;;;;;5070267;28;45470;-64
2022/03/20 07:58:07;;;;;;;;;23.75;17.75;;;;;;;;5040143;28;45544;-64
2022/03/20 08:00:32;;;;;;;;;15.50;14.00;;;;;;;;5030851;28;45637;-64
2022/03/20 08:02:59;;;;;;;;;19.00;18.75;;;;;;;;5034000;28;48419;-64
2022/03/20 08:05:25;;;;;;;;;20.75;19.75;;;;;;;;5044894;28;45670;-64
2022/03/20 08:07:50;;;;;;;;;17.75;17.75;;;;;;;;5045067;28;45531;-64
2022/03/20 08:10:15;;;;;;;;;18.25;15.00;;;;;;;;5048872;28;45417;-64
2022/03/20 08:12:41;;;;;;;;;18.25;18.00;;;;;;;;5055770;28;48566;-64
2022/03/20 08:15:07;;;;;;;;;18.25;17.25;;;;;;;;5051268;28;45535;-64
2022/03/20 08:17:41;;;;;;;;;19.00;17.00;;;;;;;;5049997;28;45352;-64
2022/03/20 08:20:06;;;;;;;;;25.00;22.50;;;;;;;;5049944;28;45397;-63
2022/03/20 08:22:32;;;;;;;;;20.25;19.75;;;;;;;;5049766;28;47334;-64
2022/03/20 08:24:57;;;;;;;;;23.50;22.25;;;;;;;;5036161;28;46370;-64
2022/03/20 08:27:23;;;;;;;;;24.25;22.50;;;;;;;;5037761;28;45433;-64
2022/03/20 08:29:48;;;;;;;;;26.50;21.75;;;;;;;;5022670;28;45599;-64
2022/03/20 08:32:14;;;;;;;;;23.50;23.50;;;;;;;;5024355;28;47824;-63
2022/03/20 08:34:40;;;;;;;;;25.50;22.75;;;;;;;;5048916;28;45406;-64
2022/03/20 08:37:05;;;;;;;;;26.00;25.00;;;;;;;;5032779;28;45504;-63
2022/03/20 08:39:31;;;;;;;;;24.75;21.25;;;;;;;;5065130;27;45709;-64
2022/03/20 08:41:56;;;;;;;;;24.25;23.25;;;;;;;;5046633;28;47418;-63
2022/03/20 08:44:25;;;;;;;;;28.25;20.50;;;;;;;;5065740;28;45585;-63
2022/03/20 08:46:51;;;;;;;;;25.50;23.50;;;;;;;;5057350;28;45416;-64
2022/03/20 08:49:16;;;;;;;;;25.50;25.00;;;;;;;;5060266;28;45328;-64
2022/03/20 08:51:43;;;;;;;;;30.00;25.75;;;;;;;;5041623;28;47078;-64
2022/03/20 08:54:09;;;;;;;;;28.75;24.25;;;;;;;;5061979;28;45454;-63
2022/03/20 08:56:34;;;;;;;;;20.75;19.75;;;;;;;;5043861;28;45601;-64
2022/03/20 08:58:59;;;;;;;;;23.75;21.00;;;;;;;;5049421;28;45571;-63
2022/03/20 09:01:24;;;;;;;;;28.25;24.75;;;;;;;;5046627;28;48045;-63
2022/03/20 09:03:50;;;;;;;;;28.25;24.75;;;;;;;;5059337;28;45329;-63
2022/03/20 09:06:16;;;;;;;;;25.00;24.50;;;;;;;;5029396;28;45450;-64
2022/03/20 09:08:43;;;;;;;;;25.50;25.00;;;;;;;;5041171;28;45565;-64
2022/03/20 09:11:08;;;;;;;;;28.25;25.50;;;;;;;;5049809;28;48657;-65
2022/03/20 09:13:33;;;;;;;;;26.00;25.75;;;;;;;;5041157;28;45427;-65
2022/03/20 09:19:04;;;;;;;;;25.25;21.50;;;;;;;;5066960;28;45580;-65
2022/03/20 09:21:30;;;;;;;;;25.00;23.50;;;;;;;;5055276;28;47407;-65
2022/03/20 09:23:56;;;;;;;;;32.25;29.00;;;;;;;;5053423;28;45584;-65
2022/03/20 09:26:21;;;;;;;;;22.00;22.00;;;;;;;;5052623;28;45431;-66
2022/03/20 09:28:47;;;;;;;;;24.50;22.50;;;;;;;;5068651;28;45663;-65
2022/03/20 09:31:13;;;;;;;;;27.00;26.25;;;;;;;;5069449;28;46016;-65
2022/03/20 09:33:38;;;;;;;;;24.50;24.25;;;;;;;;5056592;28;45750;-65
2022/03/20 09:36:04;;;;;;;;;21.00;19.50;;;;;;;;5067632;28;45400;-65
2022/03/20 09:38:29;;;;;;;;;23.00;22.25;;;;;;;;5068218;27;45650;-66
2022/03/20 09:40:56;;;;;;;;;22.00;22.00;;;;;;;;5066163;28;47530;-65
2022/03/20 09:43:22;;;;;;;;;25.25;20.75;;;;;;;;5050663;28;46382;-65
2022/03/20 09:45:47;;;;;;;;;21.75;20.25;;;;;;;;5057192;28;45440;-65
2022/03/20 09:48:14;;;;;;;;;21.75;21.75;;;;;;;;5031470;28;45596;-65
2022/03/20 09:50:40;;;;;;;;;24.00;21.00;;;;;;;;5046340;28;48153;-65
2022/03/20 09:53:05;;;;;;;;;24.25;22.50;;;;;;;;5044256;28;45510;-65
2022/03/20 09:55:30;;;;;;;;;25.25;21.00;;;;;;;;5064010;28;45440;-64
2022/03/20 09:57:56;;;;;;;;;27.00;24.25;;;;;;;;5028098;28;45854;-67
2022/03/20 10:00:22;;;;;;;;;23.50;21.25;;;;;;;;5016245;28;48617;-66
2022/03/20 10:02:47;;;;;;;;;18.25;17.00;;;;;;;;5029416;28;46342;-66
2022/03/20 10:05:19;;;;;;;;;21.25;21.25;;;;;;;;5068748;28;45436;-66
2022/03/20 10:07:44;;;;;;;;;22.25;21.25;;;;;;;;5052240;27;45387;-65
2022/03/20 10:10:28;;;;;;;;;25.25;22.50;;;;;;;;5052247;28;47576;-65
2022/03/20 10:12:56;;;;;;;;;23.50;22.50;;;;;;;;5068450;28;45312;-65
2022/03/20 10:15:30;;;;;;;;;16.75;15.75;;;;;;;;5053041;28;45399;-65
2022/03/20 10:18:11;;;;;;;;;26.50;22.25;;;;;;;;5053181;28;45545;-65
2022/03/20 10:20:46;;;;;;;;;25.00;25.00;;;;;;;;5052566;28;48504;-65
2022/03/20 10:23:27;;;;;;;;;83.75;76.75;;;;;;;;5062141;28;45499;-64
2022/03/20 10:25:52;;;;;;;;;26.75;26.75;;;;;;;;5068081;27;45953;-64
2022/03/20 10:28:17;;;;;;;;;23.75;22.75;;;;;;;;5050540;28;45389;-64
2022/03/20 10:30:54;;;;;;;;;25.50;24.75;;;;;;;;5056762;28;48105;-65
2022/03/20 10:33:19;;;;;;;;;20.75;19.25;;;;;;;;5066327;28;46345;-65
2022/03/20 10:36:05;;;;;;;;;27.75;23.00;;;;;;;;5052304;28;45358;-65
2022/03/20 10:38:36;;;;;;;;;26.25;25.50;;;;;;;;5051259;28;45574;-65
2022/03/20 10:41:01;;;;;;;;;22.50;22.50;;;;;;;;5047516;28;46875;-65
2022/03/20 10:43:26;;;;;;;;;23.75;22.50;;;;;;;;5048232;28;45478;-64
2022/03/20 10:46:01;;;;;;;;;18.75;18.75;;;;;;;;5064059;28;45292;-64
2022/03/20 10:48:37;;;;;;;;;21.25;21.00;;;;;;;;5053556;28;45446;-65
2022/03/20 10:51:03;;;;;;;;;22.25;21.75;;;;;;;;5067784;28;46148;-65
2022/03/20 10:53:28;;;;;;;;;20.75;20.75;;;;;;;;5052513;28;46118;-64
2022/03/20 10:56:03;;;;;;;;;23.50;22.50;;;;;;;;5067381;28;45759;-65
2022/03/20 10:58:28;;;;;;;;;20.00;19.50;;;;;;;;5038482;28;45749;-64
2022/03/20 11:00:54;;;;;;;;;14.75;14.50;;;;;;;;5055191;28;47662;-65
2022/03/20 11:03:22;;;;;;;;;20.75;20.50;;;;;;;;5052319;28;45426;-63
2022/03/20 11:05:48;;;;;;;;;17.50;16.50;;;;;;;;5052243;28;45791;-65
2022/03/20 11:08:13;;;;;;;;;16.25;15.50;;;;;;;;5051872;28;45437;-65
2022/03/20 11:10:42;;;;;;;;;13.25;11.25;;;;;;;;5051882;28;48104;-64
2022/03/20 11:13:08;;;;;;;;;15.50;15.50;;;;;;;;5069892;28;45666;-64
2022/03/20 11:15:34;;;;;;;;;16.00;15.50;;;;;;;;5062644;28;45354;-64
2022/03/20 11:18:00;;;;;;;;;21.25;18.00;;;;;;;;5050673;28;45591;-64
2022/03/20 11:20:28;;;;;;;;;20.25;17.50;;;;;;;;5047126;28;47788;-65
2022/03/20 11:22:54;;;;;;;;;18.00;14.50;;;;;;;;5047858;28;45398;-65
2022/03/20 11:25:24;;;;;;;;;21.50;20.25;;;;;;;;5051080;28;45392;-65
2022/03/20 11:27:55;;;;;;;;;17.75;16.50;;;;;;;;5056876;28;45367;-65
2022/03/20 11:30:22;;;;;;;;;19.75;18.50;;;;;;;;5054286;28;47428;-66
2022/03/20 11:32:48;;;;;;;;;18.75;18.75;;;;;;;;5051813;28;46241;-65
2022/03/20 11:35:14;;;;;;;;;24.50;22.50;;;;;;;;5051848;28;45339;-64
2022/03/20 11:37:41;;;;;;;;;22.75;21.00;;;;;;;;5051861;28;45541;-65
2022/03/20 11:40:08;;;;;;;;;27.00;21.50;;;;;;;;5070950;28;46434;-64
2022/03/20 11:42:33;;;;;;;;;23.25;22.75;;;;;;;;5056182;28;46353;-65
2022/03/20 11:45:04;;;;;;;;;21.00;21.00;;;;;;;;5051748;28;45767;-65
2022/03/20 11:47:34;;;;;;;;;18.50;17.75;;;;;;;;5051774;28;45655;-64
2022/03/20 11:50:11;;;;;;;;;25.00;22.50;;;;;;;;5069430;28;45334;-64
2022/03/20 11:52:50;;;;;;;;;23.00;23.00;;;;;;;;5051418;28;45686;-66
2022/03/20 11:55:34;;;;;;;;;20.75;19.00;;;;;;;;5051888;28;45375;-66
2022/03/20 11:58:12;;;;;;;;;18.75;18.00;;;;;;;;5067173;28;45537;-66
2022/03/20 12:00:39;;;;;;;;;15.75;15.00;;;;;;;;5058005;28;47712;-67
2022/03/20 12:03:14;;;;;;;;;18.25;18.25;;;;;;;;5068501;28;45326;-65
2022/03/20 12:05:54;;;;;;;;;20.25;19.25;;;;;;;;5069439;28;45301;-66
2022/03/20 12:08:38;;;;;;;;;21.50;21.50;;;;;;;;5069446;28;46863;-65
2022/03/20 12:11:24;;;;;;;;;24.25;20.25;;;;;;;;5051013;28;47455;-65
2022/03/20 12:13:55;;;;;;;;;26.50;21.75;;;;;;;;5069346;28;45492;-66
2022/03/20 12:16:52;;;;;;;;;21.75;21.75;;;;;;;;5068284;28;45224;-66
2022/03/20 12:19:17;;;;;;;;;21.50;21.50;;;;;;;;5028471;28;45387;-66
2022/03/20 12:21:52;;;;;;;;;25.00;23.50;;;;;;;;5073107;28;45572;-65
2022/03/20 12:24:35;;;;;;;;;24.25;22.50;;;;;;;;5067347;28;45362;-65
2022/03/20 12:27:19;;;;;;;;;27.50;25.75;;;;;;;;5048908;28;45548;-65
2022/03/20 12:29:50;;;;;;;;;19.25;19.25;;;;;;;;5048772;28;45540;-65
2022/03/20 12:32:16;;;;;;;;;18.50;17.75;;;;;;;;5066994;28;46451;-67
2022/03/20 12:34:42;;;;;;;;;23.00;21.25;;;;;;;;5048536;28;45466;-66
2022/03/20 12:37:26;;;;;;;;;19.25;18.00;;;;;;;;5050725;28;45494;-65
2022/03/20 12:39:54;;;;;;;;;28.25;23.25;;;;;;;;5065292;28;45466;-67
2022/03/20 12:42:20;;;;;;;;;51.75;42.00;;;;;;;;5069479;28;46515;-68
2022/03/20 12:44:49;;;;;;;;;35.50;34.25;;;;;;;;5067529;28;45502;-66
2022/03/20 12:47:22;;;;;;;;;38.00;35.25;;;;;;;;5061645;28;45463;-66
2022/03/20 12:49:51;;;;;;;;;21.00;19.25;;;;;;;;5054440;28;45441;-65
2022/03/20 12:52:18;;;;;;;;;16.25;15.00;;;;;;;;5048706;28;48700;-65
2022/03/20 12:55:00;;;;;;;;;18.00;16.00;;;;;;;;5065528;28;45503;-65
2022/03/20 12:57:42;;;;;;;;;37.50;32.50;;;;;;;;5059233;28;45516;-66
2022/03/20 13:00:09;;;;;;;;;23.25;19.25;;;;;;;;5051309;28;45558;-66
2022/03/20 13:02:35;;;;;;;;;16.25;16.25;;;;;;;;5070750;28;46118;-66
2022/03/20 13:05:09;;;;;;;;;15.50;13.75;;;;;;;;5060785;28;45717;-65
2022/03/20 13:07:35;;;;;;;;;20.25;19.25;;;;;;;;5048606;28;45610;-65
2022/03/20 13:10:00;;;;;;;;;14.75;13.50;;;;;;;;5073370;28;45341;-67
2022/03/20 13:12:26;;;;;;;;;16.50;15.75;;;;;;;;5070576;28;45538;-66
2022/03/20 13:14:55;;;;;;;;;15.75;15.50;;;;;;;;5068502;28;45777;-68
2022/03/20 13:17:24;;;;;;;;;63.75;49.50;;;;;;;;5066942;28;45435;-64
2022/03/20 13:19:49;;;;;;;;;17.00;16.50;;;;;;;;5052637;28;45589;-63
2022/03/20 13:22:16;;;;;;;;;13.50;13.50;;;;;;;;5069042;28;45967;-65
2022/03/20 13:24:49;;;;;;;;;15.50;15.50;;;;;;;;5075465;28;45415;-66
2022/03/20 13:27:14;;;;;;;;;15.50;15.00;;;;;;;;5053086;28;45516;-65
2022/03/20 13:29:49;;;;;;;;;17.50;17.50;;;;;;;;5068107;28;45621;-65
2022/03/20 13:32:15;;;;;;;;;29.25;27.00;;;;;;;;5068100;28;47335;-65
2022/03/20 13:34:43;;;;;;;;;18.50;17.00;;;;;;;;5052212;28;46183;-66
2022/03/20 13:37:10;;;;;;;;;19.00;17.50;;;;;;;;5050063;28;45466;-64
2022/03/20 13:39:36;;;;;;;;;35.50;32.50;;;;;;;;5045865;28;45419;-65
2022/03/20 13:42:33;;;;;;;;;23.75;21.25;;;;;;;;5047610;28;46752;-64
2022/03/20 13:44:59;;;;;;;;;43.75;36.75;;;;;;;;4962184;28;45546;-66
2022/03/20 13:47:25;;;;;;;;;17.75;17.75;;;;;;;;4958023;28;46249;-65
2022/03/20 13:49:55;;;;;;;;;25.75;22.00;;;;;;;;4957821;28;45495;-65
2022/03/20 13:55:03;;;;;;;;;14.25;13.75;;;;;;;;4956519;28;45456;-64
2022/03/20 13:57:30;;;;;;;;;19.75;17.00;;;;;;;;4952534;28;45549;-64
2022/03/20 13:59:57;;;;;;;;;21.50;18.00;;;;;;;;4958232;28;45672;-64
2022/03/20 14:02:25;;;;;;;;;24.50;22.75;;;;;;;;4957723;28;46157;-63
2022/03/20 14:04:52;;;;;;;;;19.25;16.25;;;;;;;;4956866;28;45843;-63
2022/03/20 14:07:18;;;;;;;;;42.25;37.25;;;;;;;;4953484;28;45448;-64
2022/03/20 14:09:44;;;;;;;;;25.75;23.50;;;;;;;;4958356;28;45475;-63
2022/03/20 14:12:21;;;;;;;;;33.50;28.25;;;;;;;;4957715;28;45883;-65
2022/03/20 14:14:47;;;;;;;;;19.75;16.25;;;;;;;;4958036;28;45736;-65
2022/03/20 14:17:13;;;;;;;;;16.25;16.25;;;;;;;;4957439;28;45797;-65
2022/03/20 14:19:47;;;;;;;;;13.75;13.00;;;;;;;;4956527;28;45551;-65
2022/03/20 14:22:13;;;;;;;;;15.25;14.75;;;;;;;;5007980;28;46333;-64
2022/03/20 14:24:46;;;;;;;;;11.00;9.00;;;;;;;;5039643;28;45767;-64
2022/03/20 14:27:12;;;;;;;;;18.75;17.50;;;;;;;;5035416;28;45899;-64
2022/03/20 14:41:22;;;;;;;;;30.75;29.25;;;;;;;;5005204;28;45422;-62
2022/03/20 14:44:03;;;;;;;;;11.25;11.25;;;;;;;;5005782;28;45537;-64
2022/03/20 14:46:29;;;;;;;;;14.00;13.50;;;;;;;;4994235;28;45535;-63
2022/03/20 14:48:57;;;;;;;;;18.75;14.00;;;;;;;;4993864;28;45417;-61
2022/03/20 14:51:22;;;;;;;;;4.00;2.00;;;;;;;;5007415;28;45478;-65
2022/03/20 14:53:48;;;;;;;;;13.00;12.25;;;;;;;;4999900;28;47451;-63
2022/03/20 14:56:15;;;;;;;;;17.25;13.00;;;;;;;;4998438;28;45621;-63
2022/03/20 14:58:40;;;;;;;;;12.75;11.50;;;;;;;;4997280;28;45503;-64
2022/03/20 15:01:07;;;;;;;;;16.25;14.25;;;;;;;;4995460;28;45381;-64
2022/03/20 15:03:34;;;;;;;;;21.50;19.75;;;;;;;;4998585;28;47363;-64
2022/03/20 15:06:01;;;;;;;;;17.00;16.00;;;;;;;;4998215;28;45380;-64
2022/03/20 15:11:26;;;;;;;;;21.00;19.50;;;;;;;;4998245;28;45586;-64
2022/03/20 15:13:55;;;;;;;;;37.25;33.50;;;;;;;;4997941;28;45736;-65
2022/03/20 15:16:21;;;;;;;;;58.75;48.50;;;;;;;;5015337;28;45582;-64
2022/03/20 15:18:48;;;;;;;;;23.25;21.25;;;;;;;;5057970;28;45460;-66
2022/03/20 15:21:14;;;;;;;;;19.75;19.25;;;;;;;;5070491;27;45569;-65
2022/03/20 15:23:39;;;;;;;;;18.00;15.25;;;;;;;;5049199;28;47688;-63